Time;durP1;ratioP1;P1;durP2;ratioP2;P2;SDS_P1;SDS_P2;PMS_P1;PMS_P2;Temp;Humidity;BMP_temperature;BMP_pressure;BME280_temperature;BME280_humidity;BME280_pressure;Samples;Min_cycle;Max_cycle;Signal;HPM_P1;HPM_P2
2021/07/04 00:02:02;;;;;;;4.18;3.50;;;20.80;74.50;;;;;;5095265;28;20048;-70
2021/07/04 00:04:28;;;;;;;5.22;3.50;;;20.80;74.50;;;;;;5095489;28;20094;-71
2021/07/04 00:06:54;;;;;;;4.38;3.67;;;20.80;74.50;;;;;;5094174;28;20071;-70
2021/07/04 00:09:20;;;;;;;3.60;3.15;;;20.80;74.50;;;;;;5095386;28;20062;-70
2021/07/04 00:11:46;;;;;;;5.13;3.58;;;20.80;74.50;;;;;;5095384;28;20056;-70
2021/07/04 00:14:13;;;;;;;5.13;3.88;;;20.80;74.50;;;;;;5084860;28;20055;-69
2021/07/04 00:16:38;;;;;;;4.53;3.30;;;20.80;74.50;;;;;;5075070;28;20119;-71
2021/07/04 00:19:04;;;;;;;3.83;3.42;;;20.80;74.50;;;;;;5074891;28;20128;-71
2021/07/04 00:21:32;;;;;;;5.60;3.83;;;20.80;74.50;;;;;;5075133;28;20467;-70
2021/07/04 00:23:58;;;;;;;4.40;3.50;;;20.80;74.50;;;;;;5089185;28;20397;-70
2021/07/04 00:26:24;;;;;;;5.65;3.70;;;20.80;74.50;;;;;;5095189;28;20044;-71
2021/07/04 00:28:49;;;;;;;5.47;4.13;;;20.80;74.50;;;;;;5076963;28;20123;-71
2021/07/04 00:31:15;;;;;;;5.25;4.18;;;20.80;74.50;;;;;;5091642;28;20043;-70
2021/07/04 00:33:41;;;;;;;4.47;3.92;;;20.80;74.50;;;;;;5094997;28;20408;-71
2021/07/04 00:36:08;;;;;;;4.30;3.75;;;20.80;74.60;;;;;;5095175;28;20146;-70
2021/07/04 00:38:35;;;;;;;4.13;3.72;;;20.80;74.60;;;;;;5092883;28;20059;-70
2021/07/04 00:41:01;;;;;;;5.25;3.80;;;20.80;74.70;;;;;;5075175;28;20048;-70
2021/07/04 00:43:27;;;;;;;4.10;3.70;;;20.80;74.70;;;;;;5075027;28;20458;-70
2021/07/04 00:45:53;;;;;;;5.45;4.03;;;20.80;74.70;;;;;;5092742;28;20059;-70
2021/07/04 00:48:19;;;;;;;5.65;4.40;;;20.80;74.70;;;;;;5078639;28;20040;-70
2021/07/04 00:50:46;;;;;;;6.32;4.50;;;20.80;74.70;;;;;;5098051;28;20113;-69
2021/07/04 00:53:12;;;;;;;6.45;4.85;;;20.80;74.70;;;;;;5098299;28;20048;-70
2021/07/04 00:55:38;;;;;;;6.43;4.82;;;20.80;74.70;;;;;;5098771;28;20068;-70
2021/07/04 00:58:04;;;;;;;5.45;4.75;;;20.80;74.70;;;;;;5098804;28;20086;-70
2021/07/04 01:00:33;;;;;;;5.45;4.90;;;20.80;74.70;;;;;;5098914;28;20056;-70
2021/07/04 01:03:00;;;;;;;4.53;4.10;;;20.80;74.70;;;;;;5098618;28;20094;-70
2021/07/04 01:05:29;;;;;;;4.88;4.38;;;20.80;74.80;;;;;;5083766;28;20040;-71
2021/07/04 01:07:56;;;;;;;5.90;5.03;;;20.80;74.80;;;;;;5078474;28;20123;-69
2021/07/04 01:10:25;;;;;;;5.35;4.63;;;20.80;74.90;;;;;;5078232;28;20466;-70
2021/07/04 01:12:53;;;;;;;5.50;4.53;;;20.80;74.80;;;;;;5077723;28;20542;-70
2021/07/04 01:15:21;;;;;;;6.78;5.18;;;20.80;74.80;;;;;;5078423;28;20074;-70
2021/07/04 01:17:48;;;;;;;5.47;4.47;;;20.80;74.80;;;;;;5081652;28;20070;-70
2021/07/04 01:20:17;;;;;;;5.80;4.72;;;20.80;74.80;;;;;;5090612;28;20067;-70
2021/07/04 01:22:55;;;;;;;6.30;4.68;;;20.70;74.70;;;;;;5089933;28;20066;-70
2021/07/04 01:25:20;;;;;;;6.03;5.03;;;20.80;74.80;;;;;;5084660;28;20040;-70
2021/07/04 01:27:46;;;;;;;5.57;4.40;;;20.70;74.80;;;;;;5084890;28;20511;-70
2021/07/04 01:30:14;;;;;;;6.00;4.90;;;20.70;74.80;;;;;;5087602;28;20048;-71
2021/07/04 01:32:40;;;;;;;5.80;4.70;;;20.70;74.80;;;;;;5082888;28;20144;-70
2021/07/04 01:35:06;;;;;;;6.22;4.47;;;20.80;74.90;;;;;;5077995;28;20116;-70
2021/07/04 01:37:32;;;;;;;4.85;4.35;;;20.70;74.80;;;;;;5077457;28;20048;-70
2021/07/04 01:39:58;;;;;;;5.43;4.75;;;20.70;74.80;;;;;;5078042;28;20348;-71
2021/07/04 01:42:24;;;;;;;6.35;4.60;;;20.70;74.80;;;;;;5087304;28;20055;-71
2021/07/04 01:44:50;;;;;;;5.10;4.60;;;20.70;74.90;;;;;;5097865;28;20077;-70
2021/07/04 01:47:15;;;;;;;5.13;4.45;;;20.70;74.90;;;;;;5097975;28;20435;-70
2021/07/04 01:49:41;;;;;;;5.55;4.65;;;20.70;74.90;;;;;;5084964;28;20131;-70
2021/07/04 01:52:07;;;;;;;5.63;4.57;;;20.70;74.90;;;;;;5077345;28;20094;-71
2021/07/04 01:54:33;;;;;;;4.45;4.05;;;20.70;74.90;;;;;;5077233;28;20136;-70
2021/07/04 01:57:11;;;;;;;5.47;4.97;;;20.70;74.90;;;;;;5076759;28;20076;-69
2021/07/04 01:59:39;;;;;;;5.45;4.93;;;20.70;74.90;;;;;;5095960;28;20451;-70
2021/07/04 02:02:06;;;;;;;5.43;4.85;;;20.70;75.00;;;;;;5097543;28;20044;-71
2021/07/04 02:04:36;;;;;;;6.10;5.07;;;20.70;75.00;;;;;;5097258;28;20109;-70
2021/07/04 02:07:04;;;;;;;6.07;5.25;;;20.70;74.90;;;;;;5097356;28;20435;-70
2021/07/04 02:09:30;;;;;;;5.38;4.78;;;20.70;74.90;;;;;;5079759;28;20098;-71
2021/07/04 02:11:56;;;;;;;6.22;5.63;;;20.70;75.00;;;;;;5076536;28;20403;-70
2021/07/04 02:14:22;;;;;;;5.88;5.28;;;20.70;74.90;;;;;;5076833;28;20040;-71
2021/07/04 02:16:47;;;;;;;6.88;5.75;;;20.70;74.90;;;;;;5082361;28;20497;-71
2021/07/04 02:19:13;;;;;;;6.20;5.38;;;20.70;74.90;;;;;;5089456;28;20422;-71
2021/07/04 02:21:39;;;;;;;6.32;5.32;;;20.70;74.90;;;;;;5086318;28;20367;-70
2021/07/04 02:24:05;;;;;;;5.93;4.70;;;20.70;74.90;;;;;;5096531;28;20040;-70
2021/07/04 02:26:34;;;;;;;6.80;5.32;;;20.70;75.00;;;;;;5097083;28;20135;-71
2021/07/04 02:29:00;;;;;;;6.13;5.10;;;20.70;75.00;;;;;;5096893;28;20097;-70
2021/07/04 02:31:26;;;;;;;6.05;5.22;;;20.70;75.00;;;;;;5097121;28;20040;-70
2021/07/04 02:33:52;;;;;;;7.78;5.47;;;20.70;75.00;;;;;;5078539;28;20048;-70
2021/07/04 02:36:20;;;;;;;6.05;5.45;;;20.70;74.90;;;;;;5076392;28;20048;-70
2021/07/04 02:38:46;;;;;;;7.47;5.70;;;20.70;74.90;;;;;;5076182;28;20059;-71
2021/07/04 02:41:11;;;;;;;6.22;5.63;;;20.70;74.90;;;;;;5077268;28;20052;-70
2021/07/04 02:43:37;;;;;;;6.22;5.38;;;20.70;74.90;;;;;;5076893;28;20052;-70
2021/07/04 02:46:03;;;;;;;6.00;5.38;;;20.70;75.00;;;;;;5076634;28;20420;-70
2021/07/04 02:48:29;;;;;;;5.65;5.07;;;20.70;75.00;;;;;;5075991;28;20055;-70
2021/07/04 02:50:55;;;;;;;6.53;5.30;;;20.70;75.00;;;;;;5076671;28;20049;-70
2021/07/04 02:53:21;;;;;;;6.00;5.40;;;20.70;75.00;;;;;;5091707;28;20040;-71
2021/07/04 02:55:46;;;;;;;6.05;5.30;;;20.70;75.60;;;;;;5097017;28;20050;-70
2021/07/04 02:58:12;;;;;;;5.85;5.32;;;20.70;75.10;;;;;;5096493;28;20048;-71
2021/07/04 03:00:41;;;;;;;7.13;5.32;;;20.70;75.10;;;;;;5096096;28;20526;-70
2021/07/04 03:03:07;;;;;;;5.55;4.82;;;20.70;75.20;;;;;;5096141;28;20083;-70
2021/07/04 03:05:34;;;;;;;6.30;5.65;;;20.70;75.20;;;;;;5096544;28;20073;-71
2021/07/04 03:07:59;;;;;;;5.70;5.10;;;20.60;75.10;;;;;;5083745;28;20126;-71
2021/07/04 03:10:25;;;;;;;5.95;5.35;;;20.60;75.10;;;;;;5075237;28;20455;-71
2021/07/04 03:12:51;;;;;;;6.35;5.35;;;20.70;75.10;;;;;;5075128;28;20084;-71
2021/07/04 03:15:18;;;;;;;6.28;5.35;;;20.70;75.70;;;;;;5075242;28;20448;-71
2021/07/04 03:17:45;;;;;;;6.13;5.38;;;20.60;75.10;;;;;;5091528;28;20170;-70
2021/07/04 03:20:13;;;;;;;5.85;4.90;;;20.60;75.10;;;;;;5075942;28;20102;-71
2021/07/04 03:22:38;;;;;;;5.80;5.25;;;20.70;75.10;;;;;;5075933;28;20044;-71
2021/07/04 03:25:06;;;;;;;7.18;5.20;;;20.70;75.20;;;;;;5076232;28;20040;-70
2021/07/04 03:27:37;;;;;;;6.45;5.70;;;20.70;75.20;;;;;;5088129;28;20069;-69
2021/07/04 03:30:09;;;;;;;6.47;5.28;;;20.70;75.20;;;;;;5096290;28;20051;-70
2021/07/04 03:32:35;;;;;;;5.72;5.15;;;20.60;75.10;;;;;;5095494;28;20347;-70
2021/07/04 03:35:05;;;;;;;6.05;5.47;;;20.60;75.10;;;;;;5096365;28;20044;-70
2021/07/04 03:37:31;;;;;;;6.47;5.43;;;20.60;75.10;;;;;;5095978;28;20355;-70
2021/07/04 03:39:57;;;;;;;5.40;4.90;;;20.60;75.20;;;;;;5095545;28;20040;-70
2021/07/04 03:42:23;;;;;;;5.70;5.10;;;20.60;75.20;;;;;;5076494;28;20064;-70
2021/07/04 03:44:48;;;;;;;6.18;5.45;;;20.60;75.10;;;;;;5075177;28;20052;-70
2021/07/04 03:47:14;;;;;;;6.00;5.40;;;20.60;75.10;;;;;;5075817;28;20056;-71
2021/07/04 03:49:40;;;;;;;5.68;4.78;;;20.60;75.10;;;;;;5075250;28;20049;-70
2021/07/04 03:52:06;;;;;;;6.43;5.63;;;20.60;75.10;;;;;;5075145;28;20044;-71
2021/07/04 03:54:32;;;;;;;5.82;5.03;;;20.60;75.10;;;;;;5074980;28;20520;-71
2021/07/04 03:56:58;;;;;;;6.25;5.10;;;20.60;75.10;;;;;;5074870;28;20086;-71
2021/07/04 03:59:24;;;;;;;5.63;4.60;;;20.60;75.10;;;;;;5075509;28;20040;-71
2021/07/04 04:01:50;;;;;;;5.97;5.03;;;20.60;75.10;;;;;;5089017;28;20044;-71
2021/07/04 04:04:16;;;;;;;5.90;5.40;;;20.60;75.10;;;;;;5095889;28;20093;-71
2021/07/04 04:06:47;;;;;;;5.50;4.80;;;20.60;75.10;;;;;;5095474;28;20048;-71
2021/07/04 04:09:13;;;;;;;6.45;5.18;;;20.60;75.10;;;;;;5095173;28;20044;-70
2021/07/04 04:11:38;;;;;;;5.68;4.75;;;20.60;75.10;;;;;;5092044;28;20459;-75
2021/07/04 04:14:04;;;;;;;6.05;5.45;;;20.60;74.90;;;;;;5086703;28;20068;-71
2021/07/04 04:16:30;;;;;;;7.60;6.75;;;20.60;75.00;;;;;;5090849;28;20098;-69
2021/07/04 04:18:56;;;;;;;7.18;6.00;;;20.60;75.10;;;;;;5080769;28;20111;-71
2021/07/04 04:21:22;;;;;;;6.88;5.35;;;20.60;75.20;;;;;;5087818;28;20040;-72
2021/07/04 04:23:47;;;;;;;6.22;5.40;;;20.60;75.30;;;;;;5085497;28;20115;-71
2021/07/04 04:26:13;;;;;;;7.40;6.38;;;20.60;75.40;;;;;;5089497;28;20051;-72
2021/07/04 04:28:39;;;;;;;10.65;6.57;;;20.60;75.60;;;;;;5092022;28;20044;-72
2021/07/04 04:31:05;;;;;;;8.73;6.60;;;20.60;75.80;;;;;;5091537;28;20051;-72
2021/07/04 04:33:30;;;;;;;8.00;6.47;;;20.60;76.50;;;;;;5079030;28;20044;-71
2021/07/04 04:35:56;;;;;;;11.82;7.22;;;20.60;75.90;;;;;;5078931;28;20071;-71
2021/07/04 04:38:22;;;;;;;9.38;7.40;;;20.60;76.00;;;;;;5082254;28;20153;-72
2021/07/04 04:40:48;;;;;;;9.80;7.43;;;20.60;76.00;;;;;;5098521;28;20047;-76
2021/07/04 04:43:14;;;;;;;8.95;7.35;;;20.60;76.20;;;;;;5098640;28;20068;-75
2021/07/04 04:45:40;;;;;;;9.63;7.32;;;20.60;76.40;;;;;;5114747;28;20044;-76
2021/07/04 04:48:06;;;;;;;8.18;6.03;;;20.60;76.40;;;;;;5099384;28;20470;-75
2021/07/04 04:50:34;;;;;;;10.30;7.30;;;20.60;76.50;;;;;;5098730;28;20044;-77
2021/07/04 04:53:00;;;;;;;10.27;7.47;;;20.60;76.60;;;;;;5097448;28;20063;-77
2021/07/04 04:55:27;;;;;;;8.82;6.25;;;20.60;76.70;;;;;;5098827;28;20469;-76
2021/07/04 04:57:52;;;;;;;8.75;6.85;;;20.60;76.70;;;;;;5098369;28;20047;-75
2021/07/04 05:00:18;;;;;;;13.57;9.32;;;20.60;76.80;;;;;;5098810;28;20115;-74
2021/07/04 05:02:44;;;;;;;8.73;6.65;;;20.60;77.00;;;;;;5098881;28;20040;-75
2021/07/04 05:05:11;;;;;;;9.63;6.93;;;20.60;77.00;;;;;;5098389;28;20048;-76
2021/07/04 05:07:40;;;;;;;7.90;6.65;;;20.60;76.90;;;;;;5098638;28;20043;-81
2021/07/04 05:10:09;;;;;;;10.48;7.05;;;20.60;77.00;;;;;;5098474;28;20039;-73
2021/07/04 05:12:34;;;;;;;25.35;8.38;;;20.60;77.10;;;;;;5097874;28;20052;-76
2021/07/04 05:15:00;;;;;;;25.60;8.18;;;20.60;77.30;;;;;;5098749;28;20048;-75
2021/07/04 05:17:26;;;;;;;27.95;9.00;;;20.70;77.40;;;;;;5098130;28;20043;-76
2021/07/04 05:19:52;;;;;;;25.80;8.70;;;20.70;77.70;;;;;;5098328;28;20123;-78
2021/07/04 05:22:18;;;;;;;19.30;9.32;;;20.70;78.00;;;;;;5098189;28;20118;-76
2021/07/04 05:24:44;;;;;;;15.52;7.90;;;20.70;78.20;;;;;;5097818;28;20043;-76
2021/07/04 05:27:10;;;;;;;14.20;7.50;;;20.70;77.90;;;;;;5098457;28;20132;-76
2021/07/04 05:29:35;;;;;;;16.63;8.77;;;20.70;77.70;;;;;;5098149;28;20044;-78
2021/07/04 05:32:01;;;;;;;16.73;9.48;;;20.60;77.60;;;;;;5096965;28;20048;-76
2021/07/04 05:34:30;;;;;;;13.40;10.80;;;20.60;77.70;;;;;;5098080;28;20138;-76
2021/07/04 05:36:56;;;;;;;14.00;11.02;;;20.60;77.90;;;;;;5097919;28;20067;-75
2021/07/04 05:39:25;;;;;;;22.63;11.50;;;20.60;78.20;;;;;;5097710;28;20044;-76
2021/07/04 05:41:51;;;;;;;16.85;12.15;;;20.60;78.50;;;;;;5097725;28;20048;-75
2021/07/04 05:44:18;;;;;;;17.52;13.32;;;20.60;78.60;;;;;;5097586;28;20185;-72
2021/07/04 05:46:43;;;;;;;16.35;12.63;;;20.60;79.00;;;;;;5097947;28;20055;-73
2021/07/04 05:49:10;;;;;;;16.45;13.35;;;20.50;79.00;;;;;;5097835;28;20040;-76
2021/07/04 05:51:36;;;;;;;14.77;12.50;;;20.50;79.20;;;;;;5097409;28;20374;-76
2021/07/04 05:54:02;;;;;;;17.35;15.15;;;20.50;79.40;;;;;;5097225;28;20046;-74
2021/07/04 05:56:28;;;;;;;17.40;13.93;;;20.50;79.30;;;;;;5096459;28;20066;-73
2021/07/04 05:58:54;;;;;;;18.17;14.50;;;20.40;79.50;;;;;;5097326;28;20036;-73
2021/07/04 06:01:19;;;;;;;21.35;17.13;;;20.40;79.70;;;;;;5097557;28;20048;-75
2021/07/04 06:03:45;;;;;;;19.83;16.00;;;20.40;79.90;;;;;;5091913;28;20370;-71
2021/07/04 06:06:12;;;;;;;19.92;16.63;;;20.40;80.20;;;;;;5084595;28;20114;-72
2021/07/04 06:08:37;;;;;;;22.95;17.13;;;20.40;80.30;;;;;;5083230;28;20132;-72
2021/07/04 06:11:03;;;;;;;21.75;17.17;;;20.30;80.30;;;;;;5077272;28;20048;-74
2021/07/04 06:13:29;;;;;;;19.05;16.40;;;20.30;80.50;;;;;;5096913;28;20453;-72
2021/07/04 06:15:55;;;;;;;22.10;17.77;;;20.30;80.60;;;;;;5097095;28;20040;-73
2021/07/04 06:18:21;;;;;;;27.52;21.02;;;20.30;80.70;;;;;;5097063;28;20421;-73
2021/07/04 06:20:47;;;;;;;24.88;18.85;;;20.30;80.90;;;;;;5097314;28;20082;-71
2021/07/04 06:23:13;;;;;;;26.20;20.38;;;20.20;81.00;;;;;;5096998;28;20040;-72
2021/07/04 06:25:39;;;;;;;26.05;21.65;;;20.20;81.30;;;;;;5076415;28;20090;-72
2021/07/04 06:28:05;;;;;;;26.15;20.63;;;20.30;81.50;;;;;;5076579;28;20050;-72
2021/07/04 06:30:31;;;;;;;27.83;20.80;;;20.20;81.50;;;;;;5092248;28;20115;-72
2021/07/04 06:32:56;;;;;;;25.17;21.08;;;20.20;81.50;;;;;;5076425;28;20045;-73
2021/07/04 06:35:22;;;;;;;24.27;20.10;;;20.20;81.50;;;;;;5076524;28;20055;-73
2021/07/04 06:37:48;;;;;;;27.77;22.38;;;20.20;81.50;;;;;;5076093;28;20033;-73
2021/07/04 06:40:14;;;;;;;28.92;22.92;;;20.20;81.50;;;;;;5076330;28;20056;-72
2021/07/04 06:42:40;;;;;;;27.27;23.05;;;20.20;81.60;;;;;;5076619;28;20102;-72
2021/07/04 06:45:09;;;;;;;29.75;23.17;;;20.20;81.70;;;;;;5076226;28;20056;-73
2021/07/04 06:47:36;;;;;;;29.25;22.88;;;20.20;81.70;;;;;;5076242;28;20067;-73
2021/07/04 06:50:04;;;;;;;30.65;23.77;;;20.20;81.70;;;;;;5076293;28;20037;-72
2021/07/04 06:52:29;;;;;;;28.23;22.90;;;20.20;81.70;;;;;;5076317;28;20071;-72
2021/07/04 06:54:55;;;;;;;31.13;23.95;;;20.10;81.60;;;;;;5075955;28;20080;-73
2021/07/04 06:57:27;;;;;;;32.35;24.30;;;20.10;81.60;;;;;;5079926;28;20438;-72
2021/07/04 06:59:58;;;;;;;30.25;24.20;;;20.10;81.60;;;;;;5087724;28;20443;-72
2021/07/04 07:02:26;;;;;;;32.42;25.13;;;20.20;81.90;;;;;;5092431;28;20451;-73
2021/07/04 07:04:52;;;;;;;30.70;23.63;;;20.10;82.50;;;;;;5077415;28;20045;-73
2021/07/04 07:07:20;;;;;;;27.77;22.05;;;20.20;81.80;;;;;;5075662;28;20120;-74
2021/07/04 07:09:50;;;;;;;27.73;22.77;;;20.20;81.60;;;;;;5079205;28;20044;-73
2021/07/04 07:12:16;;;;;;;26.38;22.00;;;20.20;81.50;;;;;;5075454;28;20110;-75
2021/07/04 07:14:42;;;;;;;31.60;23.02;;;20.20;81.50;;;;;;5075762;28;20044;-76
2021/07/04 07:17:08;;;;;;;24.55;20.80;;;20.20;81.60;;;;;;5075458;28;20455;-78
2021/07/04 07:19:35;;;;;;;25.60;20.83;;;20.30;81.70;;;;;;5075514;28;20036;-76
2021/07/04 07:22:02;;;;;;;24.75;20.63;;;20.20;81.50;;;;;;5075190;28;20036;-76
2021/07/04 07:24:28;;;;;;;24.85;20.20;;;20.20;81.80;;;;;;5075796;28;20047;-75
2021/07/04 07:26:54;;;;;;;24.85;19.48;;;20.30;81.60;;;;;;5075252;28;20045;-74
2021/07/04 07:29:20;;;;;;;23.35;18.90;;;20.30;81.50;;;;;;5077726;28;20093;-75
2021/07/04 07:31:46;;;;;;;24.90;19.30;;;20.30;81.30;;;;;;5093210;28;20123;-75
2021/07/04 07:34:12;;;;;;;26.08;20.85;;;20.30;81.80;;;;;;5090737;28;20505;-76
2021/07/04 07:36:39;;;;;;;24.30;19.70;;;20.30;81.40;;;;;;5075450;28;20083;-73
2021/07/04 07:39:06;;;;;;;25.27;20.58;;;20.30;81.20;;;;;;5075326;28;20113;-73
2021/07/04 07:41:32;;;;;;;26.08;20.27;;;20.30;81.40;;;;;;5093722;28;20047;-73
2021/07/04 07:43:59;;;;;;;26.10;20.88;;;20.30;81.60;;;;;;5077257;28;20131;-75
2021/07/04 07:46:25;;;;;;;26.02;21.60;;;20.40;81.90;;;;;;5074717;28;20149;-72
2021/07/04 07:48:50;;;;;;;26.40;21.40;;;20.40;81.80;;;;;;5079083;28;20048;-72
2021/07/04 07:51:16;;;;;;;28.92;23.52;;;20.40;81.40;;;;;;5095219;28;20051;-74
2021/07/04 07:53:43;;;;;;;26.70;22.52;;;20.40;81.00;;;;;;5094581;28;20051;-72
2021/07/04 07:56:09;;;;;;;29.38;22.20;;;20.40;80.90;;;;;;5074613;28;20113;-70
2021/07/04 07:58:34;;;;;;;29.85;24.27;;;20.40;80.80;;;;;;5075143;28;20119;-72
2021/07/04 08:01:00;;;;;;;29.17;23.77;;;20.40;80.70;;;;;;5091936;28;20039;-75
2021/07/04 08:03:26;;;;;;;29.38;23.75;;;20.30;80.70;;;;;;5075002;28;20047;-76
2021/07/04 08:05:52;;;;;;;27.83;22.83;;;20.40;80.90;;;;;;5074989;28;20041;-71
2021/07/04 08:08:18;;;;;;;28.02;22.40;;;20.40;81.00;;;;;;5076137;28;20075;-72
2021/07/04 08:10:44;;;;;;;27.27;23.67;;;20.40;81.00;;;;;;5094686;28;20079;-72
2021/07/04 08:13:10;;;;;;;26.48;23.52;;;20.40;80.90;;;;;;5077893;28;20106;-74
2021/07/04 08:15:36;;;;;;;29.50;25.35;;;20.50;81.10;;;;;;5074938;28;20041;-74
2021/07/04 08:18:02;;;;;;;29.38;25.40;;;20.50;81.60;;;;;;5074406;28;20067;-74
2021/07/04 08:20:28;;;;;;;28.52;24.40;;;20.50;81.60;;;;;;5075943;28;20072;-73
2021/07/04 08:22:54;;;;;;;27.40;23.73;;;20.50;81.80;;;;;;5095210;28;20040;-73
2021/07/04 08:25:20;;;;;;;25.98;22.05;;;20.60;81.80;;;;;;5094708;28;20097;-73
2021/07/04 08:27:46;;;;;;;25.33;22.60;;;20.60;81.80;;;;;;5094938;28;20058;-73
2021/07/04 08:30:13;;;;;;;27.67;23.58;;;20.60;81.80;;;;;;5094231;28;20051;-74
2021/07/04 08:32:39;;;;;;;28.10;22.88;;;20.60;81.80;;;;;;5094386;28;20097;-74
2021/07/04 08:35:06;;;;;;;26.20;22.50;;;20.70;81.90;;;;;;5094609;28;20048;-73
2021/07/04 08:37:33;;;;;;;24.73;20.58;;;20.70;81.90;;;;;;5081496;28;20040;-74
2021/07/04 08:39:59;;;;;;;26.58;21.55;;;20.70;81.90;;;;;;5094068;28;20040;-74
2021/07/04 08:42:25;;;;;;;22.30;19.50;;;20.70;81.80;;;;;;5081756;28;20097;-74
2021/07/04 08:44:54;;;;;;;23.52;19.60;;;20.70;81.80;;;;;;5077956;28;20048;-74
2021/07/04 08:47:22;;;;;;;24.70;20.42;;;20.70;81.80;;;;;;5094894;28;20051;-73
2021/07/04 08:49:49;;;;;;;23.73;20.02;;;20.80;81.90;;;;;;5090192;28;20083;-74
2021/07/04 08:52:15;;;;;;;25.38;18.48;;;20.80;81.90;;;;;;5075268;28;20173;-73
2021/07/04 08:54:41;;;;;;;21.65;18.48;;;20.70;81.80;;;;;;5086806;28;20048;-74
2021/07/04 08:57:11;;;;;;;22.80;19.67;;;20.80;81.70;;;;;;5074837;28;20443;-73
2021/07/04 08:59:42;;;;;;;23.60;19.23;;;20.80;81.70;;;;;;5082841;28;20115;-72
2021/07/04 09:02:11;;;;;;;22.27;18.63;;;20.80;81.60;;;;;;5074345;28;20367;-75
2021/07/04 09:05:04;;;;;;;20.98;17.60;;;20.80;81.60;;;;;;5082956;28;20152;-70
2021/07/04 09:07:34;;;;;;;19.27;17.15;;;20.90;81.50;;;;;;5082134;28;20078;-70
2021/07/04 09:10:03;;;;;;;18.50;16.27;;;20.90;81.60;;;;;;5098197;28;20127;-72
2021/07/04 09:12:50;;;;;;;17.10;14.98;;;20.90;81.50;;;;;;5095655;28;20371;-72
2021/07/04 09:15:29;;;;;;;20.05;15.55;;;20.90;81.50;;;;;;5091083;28;20043;-70
2021/07/04 09:17:57;;;;;;;16.10;14.25;;;20.90;81.50;;;;;;5096598;28;20181;-70
2021/07/04 09:20:29;;;;;;;17.95;14.52;;;20.90;81.40;;;;;;5078208;28;20055;-75
2021/07/04 09:22:56;;;;;;;16.23;13.70;;;20.90;81.40;;;;;;5078238;28;20041;-73
2021/07/04 09:25:27;;;;;;;14.77;13.13;;;20.90;81.30;;;;;;5077903;28;20044;-72
2021/07/04 09:28:18;;;;;;;16.73;13.80;;;20.90;81.20;;;;;;5078161;28;20558;-72
2021/07/04 09:30:53;;;;;;;19.75;13.45;;;20.90;81.20;;;;;;5082831;28;20040;-72
2021/07/04 09:33:25;;;;;;;14.23;12.68;;;20.90;81.10;;;;;;5087551;28;20056;-72
2021/07/04 09:36:02;;;;;;;17.52;12.75;;;21.00;81.20;;;;;;5077728;28;20044;-70
2021/07/04 09:38:42;;;;;;;24.13;12.50;;;21.00;81.20;;;;;;5077460;28;20059;-76
2021/07/04 09:41:13;;;;;;;23.58;13.93;;;21.00;81.20;;;;;;5077731;28;20048;-80
2021/07/04 09:43:41;;;;;;;20.80;12.90;;;21.00;81.30;;;;;;5077469;28;20045;-71
2021/07/04 09:46:13;;;;;;;18.40;13.10;;;21.10;81.40;;;;;;5077628;28;20125;-71
2021/07/04 09:48:39;;;;;;;16.98;11.65;;;21.10;81.40;;;;;;5077550;28;20059;-71
2021/07/04 09:51:12;;;;;;;14.68;11.15;;;21.10;81.30;;;;;;5077943;28;20052;-71
2021/07/04 09:53:45;;;;;;;17.40;12.15;;;21.10;81.30;;;;;;5078465;28;20363;-71
2021/07/04 09:56:23;;;;;;;19.08;12.20;;;21.10;81.90;;;;;;5077049;28;20072;-72
2021/07/04 09:58:58;;;;;;;16.92;11.35;;;21.20;81.40;;;;;;5077512;28;20455;-72
2021/07/04 10:01:50;;;;;;;16.42;11.05;;;21.10;81.30;;;;;;5077363;28;20048;-72
2021/07/04 10:04:30;;;;;;;14.50;10.77;;;21.20;81.10;;;;;;5093057;28;20092;-72
2021/07/04 10:06:58;;;;;;;19.73;10.52;;;21.20;81.20;;;;;;5097188;28;20113;-75
2021/07/04 10:09:25;;;;;;;16.73;10.50;;;21.10;81.20;;;;;;5097233;28;20051;-73
2021/07/04 10:11:52;;;;;;;15.38;10.25;;;21.20;81.30;;;;;;5096840;28;20134;-71
2021/07/04 10:14:19;;;;;;;14.32;10.27;;;21.20;81.30;;;;;;5097020;28;20506;-72
2021/07/04 10:16:46;;;;;;;14.30;9.57;;;21.20;81.40;;;;;;5096973;28;20120;-72
2021/07/04 10:19:21;;;;;;;12.38;8.88;;;21.20;81.30;;;;;;5096619;28;20462;-72
2021/07/04 10:22:02;;;;;;;12.73;9.57;;;21.20;81.20;;;;;;5096997;28;20044;-73
2021/07/04 10:24:29;;;;;;;16.20;9.57;;;21.30;81.30;;;;;;5097146;28;20048;-72
2021/07/04 10:26:56;;;;;;;20.48;9.52;;;21.30;81.20;;;;;;5096804;28;20074;-73
2021/07/04 10:29:27;;;;;;;16.75;9.50;;;21.30;81.10;;;;;;5088031;28;20055;-72
2021/07/04 10:31:53;;;;;;;14.80;8.98;;;21.30;81.10;;;;;;5076680;28;20062;-72
2021/07/04 10:34:19;;;;;;;13.15;8.23;;;21.30;81.00;;;;;;5076732;28;20049;-72
2021/07/04 10:36:59;;;;;;;9.35;7.70;;;21.30;80.90;;;;;;5076868;28;20123;-72
2021/07/04 10:39:27;;;;;;;17.83;9.55;;;21.30;80.80;;;;;;5076506;28;20437;-72
2021/07/04 10:41:58;;;;;;;12.73;8.15;;;21.30;80.80;;;;;;5076360;28;20040;-72
2021/07/04 10:44:44;;;;;;;11.43;8.60;;;21.30;80.70;;;;;;5076312;28;20522;-72
2021/07/04 10:47:20;;;;;;;12.88;8.57;;;21.30;80.60;;;;;;5075601;28;20353;-72
2021/07/04 10:49:50;;;;;;;10.73;8.10;;;21.40;80.60;;;;;;5076219;28;20044;-72
2021/07/04 10:52:21;;;;;;;11.25;8.57;;;21.40;80.60;;;;;;5076220;28;20041;-72
2021/07/04 10:54:51;;;;;;;10.50;8.20;;;21.40;80.50;;;;;;5076125;28;20044;-73
2021/07/04 10:57:31;;;;;;;9.48;8.07;;;21.40;80.50;;;;;;5076277;28;20106;-72
2021/07/04 11:00:03;;;;;;;11.80;8.13;;;21.40;80.40;;;;;;5088127;28;20040;-72
2021/07/04 11:02:41;;;;;;;10.15;7.82;;;21.40;80.30;;;;;;5096370;28;20060;-72
2021/07/04 11:05:12;;;;;;;10.90;8.68;;;21.30;80.70;;;;;;5096185;28;20089;-72
2021/07/04 11:07:53;;;;;;;12.30;8.15;;;21.30;80.10;;;;;;5096756;28;20419;-72
2021/07/04 11:10:20;;;;;;;10.45;7.97;;;21.40;80.00;;;;;;5096881;28;20476;-72
2021/07/04 11:12:47;;;;;;;9.38;8.25;;;21.40;80.10;;;;;;5096065;28;20504;-73
2021/07/04 11:15:13;;;;;;;10.45;8.27;;;21.30;80.00;;;;;;5096223;28;20044;-72
2021/07/04 11:17:57;;;;;;;11.15;8.35;;;21.30;79.90;;;;;;5096004;28;20093;-72
2021/07/04 11:20:23;;;;;;;9.30;8.07;;;21.40;79.80;;;;;;5095971;28;20406;-72
2021/07/04 11:22:56;;;;;;;8.98;7.93;;;21.40;79.80;;;;;;5096124;28;20044;-72
2021/07/04 11:25:23;;;;;;;10.40;7.55;;;21.30;79.70;;;;;;5096115;28;20093;-72
2021/07/04 11:28:20;;;;;;;10.98;7.70;;;21.40;79.70;;;;;;5084362;28;20041;-71
2021/07/04 11:31:01;;;;;;;8.88;7.97;;;21.40;79.50;;;;;;5075411;28;20047;-72
2021/07/04 11:33:35;;;;;;;8.57;7.50;;;21.40;79.40;;;;;;5086895;28;20449;-72
2021/07/04 11:36:20;;;;;;;9.00;7.07;;;21.40;79.40;;;;;;5095627;28;20055;-72
2021/07/04 11:38:52;;;;;;;8.70;7.43;;;21.40;79.40;;;;;;5095784;28;20464;-72
2021/07/04 11:41:39;;;;;;;7.85;6.68;;;21.40;79.40;;;;;;5095357;28;20055;-75
2021/07/04 11:44:10;;;;;;;9.43;7.05;;;21.40;79.30;;;;;;5095360;28;20462;-74
2021/07/04 11:46:42;;;;;;;8.45;6.90;;;21.40;79.30;;;;;;5095326;28;20040;-77
2021/07/04 11:49:13;;;;;;;10.15;7.70;;;21.40;79.30;;;;;;5095395;28;20047;-73
2021/07/04 11:51:45;;;;;;;8.32;6.88;;;21.40;79.30;;;;;;5095464;28;20048;-73
2021/07/04 11:54:14;;;;;;;8.30;7.50;;;21.40;79.30;;;;;;5095396;28;20044;-73
2021/07/04 11:56:41;;;;;;;13.20;8.05;;;21.40;79.40;;;;;;5095229;28;20451;-73
2021/07/04 11:59:13;;;;;;;10.07;7.95;;;21.40;79.40;;;;;;5095211;28;20093;-73
2021/07/04 12:01:43;;;;;;;10.10;7.55;;;21.40;79.40;;;;;;5089290;28;20036;-75
2021/07/04 12:04:09;;;;;;;15.75;7.45;;;21.40;79.50;;;;;;5074945;28;20044;-73
2021/07/04 12:06:35;;;;;;;9.50;7.63;;;21.40;79.60;;;;;;5075279;28;20044;-73
2021/07/04 12:09:05;;;;;;;12.60;7.65;;;21.40;79.60;;;;;;5074917;28;20040;-72
2021/07/04 12:11:54;;;;;;;10.60;7.38;;;21.40;79.40;;;;;;5074158;28;20068;-73
2021/07/04 12:14:28;;;;;;;10.73;7.65;;;21.50;79.40;;;;;;5074822;28;20072;-81
2021/07/04 12:16:56;;;;;;;13.32;8.32;;;21.40;79.40;;;;;;5082946;28;20221;-73
2021/07/04 12:19:34;;;;;;;8.57;7.15;;;21.40;79.40;;;;;;5094977;28;20063;-74
2021/07/04 12:22:03;;;;;;;12.05;7.22;;;21.50;79.50;;;;;;5094858;28;20044;-73
2021/07/04 12:24:43;;;;;;;13.88;7.40;;;21.50;79.60;;;;;;5094868;28;20524;-73
2021/07/04 12:27:09;;;;;;;10.63;6.82;;;21.50;79.60;;;;;;5095708;28;20399;-73
2021/07/04 12:29:58;;;;;;;11.13;8.02;;;21.50;79.60;;;;;;5095409;28;20396;-73
2021/07/04 12:32:24;;;;;;;12.18;7.18;;;21.50;79.40;;;;;;5082640;28;20082;-74
2021/07/04 12:34:53;;;;;;;12.43;7.70;;;21.50;79.40;;;;;;5075172;28;20513;-85
2021/07/04 12:37:19;;;;;;;16.65;8.50;;;21.50;79.40;;;;;;5073759;28;20058;-79
2021/07/04 12:39:47;;;;;;;11.32;8.20;;;21.50;79.40;;;;;;5075122;28;20048;-78
2021/07/04 12:42:23;;;;;;;11.43;8.32;;;21.50;78.60;;;;;;5076024;28;20045;-79
2021/07/04 12:45:02;;;;;;;8.48;7.40;;;21.50;77.30;;;;;;5078523;28;20105;-78